createdAt,value
2019-03-04T00:06:52.119Z,10.35
2019-03-04T00:13:32.308Z,10.32
2019-03-04T00:19:58.444Z,10.35
2019-03-04T00:25:51.744Z,10.41
2019-03-04T00:32:17.464Z,10.46
2019-03-04T00:38:56.714Z,10.51
2019-03-04T00:45:33.641Z,10.59
2019-03-04T00:52:01.484Z,10.58
2019-03-04T00:58:29.976Z,10.52
2019-03-04T01:08:45.208Z,10.43
2019-03-04T01:15:29.081Z,10.42
2019-03-04T01:21:55.241Z,10.43
2019-03-04T01:28:23.086Z,10.40
2019-03-04T01:34:55.974Z,10.39
2019-03-04T01:41:36.942Z,10.32
2019-03-04T01:48:02.765Z,10.31
2019-03-04T01:54:28.348Z,10.30
2019-03-04T02:01:05.510Z,10.31
2019-03-04T02:10:55.354Z,10.25
2019-03-04T02:17:20.937Z,10.23
2019-03-04T02:23:50.885Z,10.25
2019-03-04T02:30:23.702Z,10.24
2019-03-04T02:37:00.617Z,10.21
2019-03-04T02:43:28.095Z,10.15
2019-03-04T02:49:53.504Z,10.12
2019-03-04T02:56:29.217Z,10.04
2019-03-04T03:02:55.885Z,9.98
2019-03-04T03:12:58.013Z,9.93
2019-03-04T03:19:24.677Z,9.89
2019-03-04T03:25:17.533Z,9.87
2019-03-04T03:31:54.261Z,9.89
2019-03-04T03:38:21.747Z,9.85
2019-03-04T03:44:47.112Z,9.84
2019-03-04T03:51:24.914Z,9.87
2019-03-04T03:57:55.924Z,9.85
2019-03-04T04:04:21.529Z,9.86
2019-03-04T04:14:24.473Z,9.79
2019-03-04T04:20:50.323Z,9.71
2019-03-04T04:26:55.142Z,9.61
2019-03-04T04:33:22.773Z,9.55
2019-03-04T04:39:50.667Z,9.45
2019-03-04T04:46:15.634Z,9.36
2019-03-04T04:52:56.309Z,9.32
2019-03-04T04:59:27.479Z,9.30
2019-03-04T05:05:59.051Z,9.29
2019-03-04T05:16:15.099Z,9.30
2019-03-04T05:22:54.401Z,9.27
2019-03-04T05:29:20.219Z,9.28
2019-03-04T05:35:48.063Z,9.29
2019-03-04T05:42:24.996Z,9.28
2019-03-04T05:48:50.565Z,9.24
2019-03-04T05:55:19.286Z,9.26
2019-03-04T06:01:51.541Z,9.30
2019-03-04T06:08:28.472Z,9.34
2019-03-04T06:18:30.370Z,9.37
2019-03-04T06:24:57.265Z,9.43
2019-03-04T06:31:22.828Z,9.44
2019-03-04T06:38:00.012Z,9.55
2019-03-04T06:44:25.846Z,9.62
2019-03-04T06:51:01.676Z,9.67
2019-03-04T06:57:45.552Z,9.76
2019-03-04T07:04:23.275Z,9.91
2019-03-04T07:10:51.179Z,10.01
2019-03-04T07:21:06.624Z,10.12
2019-03-04T07:26:56.081Z,10.15
2019-03-04T07:33:35.032Z,10.23
2019-03-04T07:40:00.604Z,10.31
2019-03-04T07:46:27.278Z,10.32
2019-03-04T07:53:01.593Z,10.39
2019-03-04T07:56:35.698Z,10.34
2019-03-04T08:03:02.533Z,10.08
2019-03-04T08:10:13.529Z,10.00
2019-03-04T08:16:52.757Z,10.00
2019-03-04T08:19:49.509Z,9.95
2019-03-04T08:25:37.952Z,10.01
2019-03-04T08:32:03.793Z,9.99
2019-03-04T08:38:40.706Z,9.94
2019-03-04T08:47:41.848Z,9.86
2019-03-04T08:50:14.334Z,9.81
2019-03-04T08:52:44.916Z,9.73
2019-03-04T08:55:18.766Z,9.59
2019-03-04T08:57:49.263Z,9.58
2019-03-04T09:00:27.587Z,9.47
2019-03-04T09:02:58.311Z,9.46
2019-03-04T09:05:30.167Z,9.45
2019-03-04T09:08:00.785Z,9.47
2019-03-04T09:10:31.962Z,9.49
2019-03-04T09:13:02.644Z,9.56
2019-03-04T09:15:33.408Z,9.58
2019-03-04T09:18:07.459Z,9.59
2019-03-04T09:20:38.008Z,9.64
2019-03-04T09:23:08.559Z,9.67
2019-03-04T09:25:49.697Z,9.74
2019-03-04T09:28:20.305Z,9.77
2019-03-04T09:30:53.883Z,9.82
2019-03-04T09:33:24.482Z,9.86
2019-03-04T09:35:55.011Z,9.92
2019-03-04T09:38:25.614Z,9.97
2019-03-04T09:40:56.165Z,10.02
2019-03-04T09:43:28.001Z,10.05
2019-03-04T09:45:58.635Z,10.15
2019-03-04T09:48:29.177Z,10.18
2019-03-04T09:50:59.777Z,10.22
2019-03-04T09:53:39.112Z,10.25
2019-03-04T09:56:02.648Z,10.26
2019-03-04T09:58:33.205Z,10.22
2019-03-04T10:01:32.072Z,10.22
2019-03-04T10:05:00.294Z,10.14
2019-03-04T10:08:32.811Z,10.13
2019-03-04T10:11:47.639Z,10.00
2019-03-04T10:15:12.343Z,9.87
2019-03-04T10:17:56.155Z,9.65
2019-03-04T10:21:14.231Z,9.59
2019-03-04T10:24:42.499Z,9.55
2019-03-04T10:28:07.537Z,9.55
2019-03-04T10:31:32.569Z,9.63
2019-03-04T10:34:33.926Z,9.68
2019-03-04T10:37:43.263Z,9.73
2019-03-04T10:41:15.197Z,9.79
2019-03-04T10:45:08.400Z,9.87
2019-03-04T10:47:38.978Z,9.92
2019-03-04T10:50:10.551Z,9.98
2019-03-04T10:52:41.149Z,9.94
2019-03-04T10:55:12.493Z,9.92
2019-03-04T10:57:45.171Z,9.88
2019-03-04T11:00:18.718Z,9.94
2019-03-04T11:02:49.330Z,9.96
2019-03-04T11:05:20.915Z,10.02
2019-03-04T11:07:51.514Z,10.08
2019-03-04T11:10:25.255Z,10.13
2019-03-04T11:12:55.823Z,10.20
2019-03-04T11:15:26.681Z,10.24
2019-03-04T11:17:57.235Z,10.25
2019-03-04T11:20:27.785Z,10.21
2019-03-04T11:22:58.374Z,10.09
2019-03-04T11:25:29.025Z,9.94
2019-03-04T11:28:01.953Z,9.70
2019-03-04T11:30:32.944Z,9.65
2019-03-04T11:33:03.526Z,9.57
2019-03-04T11:35:37.182Z,9.54
2019-03-04T11:38:28.475Z,9.47
2019-03-04T11:41:00.232Z,9.57
2019-03-04T11:43:31.855Z,9.65
2019-03-04T11:46:02.414Z,9.72
2019-03-04T11:48:32.955Z,9.79
2019-03-04T11:51:03.587Z,9.83
2019-03-04T11:53:34.156Z,9.91
2019-03-04T11:56:04.858Z,9.94
2019-03-04T11:58:36.689Z,9.96
2019-03-04T12:01:14.218Z,9.94
2019-03-04T12:03:44.796Z,9.97
2019-03-04T12:06:15.388Z,10.02
2019-03-04T12:08:45.967Z,10.06
2019-03-04T12:11:16.517Z,10.08
2019-03-04T12:13:47.070Z,10.04
2019-03-04T12:16:17.657Z,9.77
2019-03-04T12:18:49.545Z,9.82
2019-03-04T12:21:20.202Z,9.72
2019-03-04T12:23:50.754Z,9.51
2019-03-04T12:26:21.381Z,9.56
2019-03-04T12:28:52.024Z,9.41
2019-03-04T12:31:29.533Z,9.48
2019-03-04T12:34:00.072Z,9.60
2019-03-04T12:36:30.627Z,9.67
2019-03-04T12:39:01.157Z,9.75
2019-03-04T12:41:31.748Z,9.82
2019-03-04T12:44:02.278Z,9.84
2019-03-04T12:46:32.849Z,9.78
2019-03-04T12:49:03.370Z,9.81
2019-03-04T12:51:33.979Z,9.76
2019-03-04T12:54:04.577Z,9.67
2019-03-04T12:56:35.178Z,9.57
2019-03-04T12:59:05.791Z,9.50
2019-03-04T13:01:36.380Z,9.41
2019-03-04T13:04:06.955Z,9.27
2019-03-04T13:06:37.551Z,9.11
2019-03-04T13:09:14.524Z,9.00
2019-03-04T13:11:42.056Z,8.89
2019-03-04T13:14:12.609Z,8.83
2019-03-04T13:16:43.168Z,8.65
2019-03-04T13:19:13.743Z,8.63
2019-03-04T13:21:44.408Z,8.58
2019-03-04T13:24:15.018Z,8.58
2019-03-04T13:26:45.611Z,8.60
2019-03-04T13:29:16.209Z,8.61
2019-03-04T13:31:46.832Z,8.68
2019-03-04T13:34:17.418Z,8.75
2019-03-04T13:36:48.005Z,8.77
2019-03-04T13:39:18.575Z,8.90
2019-03-04T13:41:49.172Z,8.97
2019-03-04T13:44:19.726Z,9.05
2019-03-04T13:46:50.278Z,9.16
2019-03-04T13:49:20.829Z,9.22
2019-03-04T13:51:52.895Z,9.28
2019-03-04T13:54:23.380Z,9.33
2019-03-04T13:56:53.973Z,9.36
2019-03-04T13:59:24.510Z,9.36
2019-03-04T14:01:55.145Z,9.35
2019-03-04T14:04:25.676Z,9.31
2019-03-04T14:06:56.277Z,9.22
2019-03-04T14:09:26.857Z,9.09
2019-03-04T14:11:59.855Z,8.96
2019-03-04T14:14:30.535Z,8.65
2019-03-04T14:17:01.390Z,8.49
2019-03-04T14:19:31.954Z,8.45
2019-03-04T14:22:02.560Z,8.35
2019-03-04T14:24:33.088Z,8.21
2019-03-04T14:27:03.670Z,8.22
2019-03-04T14:29:34.271Z,8.17
2019-03-04T14:32:07.063Z,8.00
2019-03-04T14:34:37.199Z,7.81
2019-03-04T14:37:07.791Z,7.68
2019-03-04T14:39:38.404Z,7.62
2019-03-04T14:42:09.000Z,7.47
2019-03-04T14:44:39.536Z,7.49
2019-03-04T14:47:10.109Z,7.57
2019-03-04T14:49:44.839Z,7.60
2019-03-04T14:52:12.930Z,7.67
2019-03-04T14:54:43.541Z,7.71
2019-03-04T14:57:14.305Z,7.79
2019-03-04T14:59:44.826Z,7.72
2019-03-04T15:02:17.278Z,7.76
2019-03-04T15:04:47.844Z,7.75
2019-03-04T15:07:18.402Z,7.80
2019-03-04T15:09:50.123Z,7.85
2019-03-04T15:12:20.705Z,7.89
2019-03-04T15:14:51.294Z,7.94
2019-03-04T15:17:28.875Z,7.82
2019-03-04T15:20:08.946Z,7.81
2019-03-04T15:22:34.763Z,7.81
2019-03-04T15:25:04.430Z,7.85
2019-03-04T15:27:35.040Z,7.86
2019-03-04T15:30:06.473Z,7.83
2019-03-04T15:32:37.063Z,7.80
2019-03-04T15:35:08.003Z,7.80
2019-03-04T15:37:38.618Z,7.81
2019-03-04T15:40:09.494Z,7.74
2019-03-04T15:42:40.081Z,7.75
2019-03-04T15:45:11.441Z,7.65
2019-03-04T15:47:42.095Z,7.64
2019-03-04T15:50:12.748Z,7.65
2019-03-04T15:52:45.214Z,7.67
2019-03-04T15:55:15.733Z,7.71
2019-03-04T15:57:48.690Z,7.73
2019-03-04T16:00:19.035Z,7.66
2019-03-04T16:02:49.812Z,7.73
2019-03-04T16:05:20.403Z,7.72
2019-03-04T16:07:51.059Z,7.66
2019-03-04T16:10:22.673Z,7.70
2019-03-04T16:12:53.363Z,7.67
2019-03-04T16:15:25.511Z,7.67
2019-03-04T16:17:56.726Z,7.69
2019-03-04T16:20:27.272Z,7.72
2019-03-04T16:23:01.231Z,7.72
2019-03-04T16:25:32.197Z,7.57
2019-03-04T16:28:16.162Z,7.60
2019-03-04T16:30:49.995Z,7.65
2019-03-04T16:33:24.818Z,7.62
2019-03-04T16:35:57.655Z,7.64
2019-03-04T16:38:28.172Z,7.62
2019-03-04T16:41:00.833Z,7.63
2019-03-04T16:43:31.473Z,7.57
2019-03-04T16:46:02.038Z,7.51
2019-03-04T16:48:32.626Z,7.46
2019-03-04T16:51:03.172Z,7.41
2019-03-04T16:53:33.833Z,7.44
2019-03-04T16:56:04.460Z,7.40
2019-03-04T16:58:35.026Z,7.38
2019-03-04T17:01:06.180Z,7.38
2019-03-04T17:03:36.776Z,7.37
2019-03-04T17:06:07.433Z,7.33
2019-03-04T17:08:37.989Z,7.29
2019-03-04T17:11:08.542Z,7.28
2019-03-04T17:13:39.133Z,7.23
2019-03-04T17:16:09.666Z,7.20
2019-03-04T17:18:40.224Z,7.19
2019-03-04T17:21:10.806Z,7.20
2019-03-04T17:23:41.368Z,7.20
2019-03-04T17:26:17.356Z,7.20
2019-03-04T17:28:49.302Z,7.16
2019-03-04T17:31:19.926Z,7.11
2019-03-04T17:33:50.540Z,7.14
2019-03-04T17:36:21.112Z,7.11
2019-03-04T17:38:53.003Z,7.11
2019-03-04T17:41:26.791Z,7.09
2019-03-04T17:43:57.396Z,7.06
2019-03-04T17:46:27.947Z,6.99
2019-03-04T17:48:58.524Z,7.01
2019-03-04T17:51:29.036Z,7.00
2019-03-04T17:53:59.695Z,6.99
2019-03-04T17:56:32.410Z,6.96
2019-03-04T17:59:02.953Z,6.93
2019-03-04T18:01:33.535Z,6.88
2019-03-04T18:04:04.162Z,6.88
2019-03-04T18:06:36.450Z,6.93
2019-03-04T18:09:08.773Z,6.90
2019-03-04T18:11:39.465Z,6.92
2019-03-04T18:14:10.533Z,6.95
2019-03-04T18:16:41.155Z,6.95
2019-03-04T18:19:12.180Z,6.96
2019-03-04T18:21:42.757Z,6.95
2019-03-04T18:24:13.318Z,6.93
2019-03-04T18:27:05.271Z,6.92
2019-03-04T18:30:24.594Z,6.92
2019-03-04T18:33:57.223Z,6.90
2019-03-04T18:37:20.595Z,6.90
2019-03-04T18:41:18.368Z,6.86
2019-03-04T18:44:29.667Z,6.85
2019-03-04T18:47:53.932Z,6.80
2019-03-04T18:50:24.622Z,6.80
2019-03-04T18:52:55.212Z,6.81
2019-03-04T18:55:25.817Z,6.78
2019-03-04T18:57:56.419Z,6.69
2019-03-04T19:00:27.818Z,6.72
2019-03-04T19:02:58.417Z,6.70
2019-03-04T19:05:28.965Z,6.70
2019-03-04T19:07:59.560Z,6.71
2019-03-04T19:10:33.293Z,6.71
2019-03-04T19:13:04.827Z,6.71
2019-03-04T19:15:35.467Z,6.70
2019-03-04T19:18:06.057Z,6.66
2019-03-04T19:20:36.649Z,6.70
2019-03-04T19:23:07.294Z,6.69
2019-03-04T19:25:37.892Z,6.66
2019-03-04T19:28:11.434Z,6.64
2019-03-04T19:30:46.473Z,6.61
2019-03-04T19:33:19.055Z,6.59
2019-03-04T19:35:49.779Z,6.54
2019-03-04T19:38:20.340Z,6.46
2019-03-04T19:40:53.781Z,6.49
2019-03-04T19:43:32.842Z,6.47
2019-03-04T19:46:00.145Z,6.45
2019-03-04T19:48:33.490Z,6.45
2019-03-04T19:51:13.899Z,6.47
2019-03-04T19:53:46.990Z,6.50
2019-03-04T19:56:17.583Z,6.55
2019-03-04T19:58:50.879Z,6.56
2019-03-04T20:01:25.774Z,6.57
2019-03-04T20:03:58.470Z,6.55
2019-03-04T20:06:29.261Z,6.58
2019-03-04T20:09:03.415Z,6.62
2019-03-04T20:11:37.550Z,6.69
2019-03-04T20:14:09.771Z,6.67
2019-03-04T20:16:40.406Z,6.72
2019-03-04T20:19:11.042Z,6.71
2019-03-04T20:21:44.933Z,6.71
2019-03-04T20:24:23.647Z,6.71
2019-03-04T20:26:55.401Z,6.64
2019-03-04T20:29:26.047Z,6.59
2019-03-04T20:31:59.546Z,6.56
2019-03-04T20:34:32.595Z,6.60
2019-03-04T20:37:04.226Z,6.58
2019-03-04T20:39:37.240Z,6.51
2019-03-04T20:42:07.863Z,6.56
2019-03-04T20:44:38.514Z,6.56
2019-03-04T20:47:11.763Z,6.57
2019-03-04T20:49:42.316Z,6.53
2019-03-04T20:52:16.101Z,6.55
2019-03-04T20:54:46.746Z,6.55
2019-03-04T20:57:17.380Z,6.55
2019-03-04T20:59:47.955Z,6.51
2019-03-04T21:02:26.764Z,6.54
2019-03-04T21:04:59.151Z,6.53
2019-03-04T21:07:29.726Z,6.56
2019-03-04T21:10:04.246Z,6.55
2019-03-04T21:12:36.054Z,6.55
2019-03-04T21:15:07.786Z,6.49
2019-03-04T21:17:38.651Z,6.44
2019-03-04T21:20:10.006Z,6.47
2019-03-04T21:22:40.750Z,6.42
2019-03-04T21:25:44.209Z,6.38
2019-03-04T21:28:26.874Z,6.40
2019-03-04T21:31:41.293Z,6.41
2019-03-04T21:35:11.117Z,6.35
2019-03-04T21:37:45.626Z,6.35
2019-03-04T21:40:42.351Z,6.34
2019-03-04T21:43:23.692Z,6.33
2019-03-04T21:46:35.286Z,6.23
2019-03-04T21:49:13.065Z,6.27
2019-03-04T21:52:50.998Z,6.29
2019-03-04T21:55:46.011Z,6.31
2019-03-04T21:58:16.603Z,6.24
2019-03-04T22:00:55.950Z,6.21
2019-03-04T22:03:31.201Z,6.23
2019-03-04T22:06:01.773Z,6.21
2019-03-04T22:08:33.850Z,6.17
2019-03-04T22:11:04.947Z,6.16
2019-03-04T22:13:35.518Z,6.20
2019-03-04T22:16:06.122Z,6.17
2019-03-04T22:18:36.756Z,6.13
2019-03-04T22:21:16.289Z,6.15
2019-03-04T22:23:39.695Z,6.11
2019-03-04T22:26:10.258Z,6.13
2019-03-04T22:28:43.799Z,6.11
2019-03-04T22:31:14.678Z,6.10
2019-03-04T22:33:45.276Z,6.10
2019-03-04T22:36:15.848Z,6.13
2019-03-04T22:38:46.411Z,6.17
2019-03-04T22:41:16.999Z,6.19
2019-03-04T22:43:47.603Z,6.24
2019-03-04T22:46:18.126Z,6.25
2019-03-04T22:48:48.711Z,6.29
2019-03-04T22:51:19.311Z,6.32
2019-03-04T22:53:49.905Z,6.33
2019-03-04T22:56:20.488Z,6.39
2019-03-04T22:58:51.033Z,6.41
2019-03-04T23:01:41.541Z,6.41
2019-03-04T23:05:21.206Z,6.41
2019-03-04T23:07:56.734Z,6.41
2019-03-04T23:10:42.927Z,6.41
2019-03-04T23:13:37.442Z,6.41
2019-03-04T23:16:09.524Z,6.44
2019-03-04T23:18:40.128Z,6.46
2019-03-04T23:21:13.477Z,6.49
2019-03-04T23:23:44.015Z,6.48
2019-03-04T23:26:14.639Z,6.49
2019-03-04T23:28:45.182Z,6.49
2019-03-04T23:31:15.834Z,6.52
2019-03-04T23:33:46.424Z,6.48
2019-03-04T23:36:17.022Z,6.54
2019-03-04T23:38:47.552Z,6.55
2019-03-04T23:41:18.084Z,6.53
2019-03-04T23:43:48.657Z,6.52
2019-03-04T23:46:19.226Z,6.50
2019-03-04T23:48:49.822Z,6.48
2019-03-04T23:51:23.207Z,6.42
2019-03-04T23:53:53.804Z,6.43
2019-03-04T23:56:24.324Z,6.39
2019-03-04T23:58:54.911Z,6.40
